Time;durP1;ratioP1;P1;durP2;ratioP2;P2;SDS_P1;SDS_P2;PMS_P1;PMS_P2;Temp;Humidity;BMP_temperature;BMP_pressure;BME280_temperature;BME280_humidity;BME280_pressure;Samples;Min_cycle;Max_cycle;Signal;HPM_P1;HPM_P2
2021/09/02 00:00:46;;;;;;;6.73;6.00;;;11.70;99.90;;;;;;6260434;22;20764;-86
2021/09/02 00:03:12;;;;;;;7.50;6.50;;;11.70;99.90;;;;;;6287478;22;20446;-85
2021/09/02 00:05:38;;;;;;;8.10;7.30;;;11.60;99.90;;;;;;6261126;22;20169;-85
2021/09/02 00:08:04;;;;;;;9.07;6.80;;;11.60;99.90;;;;;;6286817;22;20922;-85
2021/09/02 00:10:30;;;;;;;7.30;6.60;;;11.60;99.90;;;;;;6287263;22;20161;-86
2021/09/02 00:12:56;;;;;;;8.03;7.23;;;11.60;99.90;;;;;;6287765;22;20457;-85
2021/09/02 00:15:21;;;;;;;9.40;7.47;;;11.60;99.90;;;;;;6287448;22;20483;-86
2021/09/02 00:17:47;;;;;;;8.33;7.50;;;11.60;99.90;;;;;;6288162;22;20708;-85
2021/09/02 00:20:13;;;;;;;8.13;7.33;;;11.60;99.90;;;;;;6287096;22;20214;-85
2021/09/02 00:22:39;;;;;;;8.20;7.50;;;11.70;99.90;;;;;;6287512;22;20506;-85
2021/09/02 00:25:05;;;;;;;8.60;7.70;;;11.60;99.90;;;;;;6289897;22;20384;-85
2021/09/02 00:27:31;;;;;;;8.50;7.60;;;11.60;99.90;;;;;;6263742;22;20157;-86
2021/09/02 00:29:56;;;;;;;8.90;8.10;;;11.60;99.90;;;;;;6289373;22;20862;-85
2021/09/02 00:32:22;;;;;;;9.60;8.70;;;11.50;99.90;;;;;;6289060;22;20567;-85
2021/09/02 00:34:48;;;;;;;13.00;8.37;;;11.50;99.90;;;;;;6285588;22;20170;-85
2021/09/02 00:37:13;;;;;;;8.93;7.97;;;11.50;99.90;;;;;;6289491;22;20185;-85
2021/09/02 00:39:39;;;;;;;8.67;7.70;;;11.50;99.90;;;;;;6288547;22;20427;-86
2021/09/02 00:42:05;;;;;;;8.10;7.30;;;11.40;99.90;;;;;;6287660;22;20219;-85
2021/09/02 00:44:39;;;;;;;8.60;7.80;;;11.60;99.90;;;;;;6287399;22;20218;-86
2021/09/02 00:47:51;;;;;;;8.40;7.60;;;11.50;99.90;;;;;;5096008;27;20449;-84
2021/09/02 00:50:17;;;;;;;7.97;7.20;;;11.50;99.90;;;;;;5076752;28;20452;-85
2021/09/02 00:52:44;;;;;;;8.87;7.70;;;11.50;99.90;;;;;;5068089;28;20518;-85
2021/09/02 00:55:09;;;;;;;7.70;7.00;;;11.50;99.90;;;;;;5049232;28;20428;-85
2021/09/02 00:57:36;;;;;;;8.30;7.50;;;11.40;99.90;;;;;;5049876;28;20734;-85
2021/09/02 01:00:07;;;;;;;8.33;7.53;;;11.50;99.90;;;;;;5066862;28;20452;-84
2021/09/02 01:02:33;;;;;;;7.70;7.00;;;11.40;99.90;;;;;;5051730;28;20465;-86
2021/09/02 01:04:59;;;;;;;8.17;7.40;;;11.30;99.90;;;;;;5052012;28;20469;-85
2021/09/02 01:07:27;;;;;;;7.70;6.70;;;11.20;99.90;;;;;;5063487;28;20215;-85
2021/09/02 01:09:54;;;;;;;8.60;7.63;;;11.20;99.90;;;;;;5050419;28;20475;-85
2021/09/02 01:12:27;;;;;;;7.73;6.87;;;11.20;99.90;;;;;;5053288;28;20452;-84
2021/09/02 01:14:53;;;;;;;8.67;7.77;;;11.10;99.90;;;;;;5065067;28;20902;-84
2021/09/02 01:17:23;;;;;;;7.90;7.10;;;11.10;99.90;;;;;;5060521;28;20832;-84
2021/09/02 01:19:51;;;;;;;8.73;7.90;;;11.10;99.90;;;;;;5064417;28;20441;-84
2021/09/02 01:22:18;;;;;;;8.23;7.43;;;11.10;99.90;;;;;;5049132;28;20453;-84
2021/09/02 01:24:45;;;;;;;8.93;7.70;;;11.00;99.90;;;;;;5050567;28;20461;-84
2021/09/02 01:27:13;;;;;;;9.80;8.80;;;11.10;99.90;;;;;;5069609;28;20477;-84
2021/09/02 01:29:39;;;;;;;13.00;9.13;;;11.00;99.90;;;;;;5061571;28;20444;-84
2021/09/02 01:32:06;;;;;;;9.83;8.83;;;11.00;99.90;;;;;;5063117;28;20458;-84
2021/09/02 01:34:31;;;;;;;10.30;9.30;;;11.00;99.90;;;;;;5066556;28;20294;-85
2021/09/02 01:36:57;;;;;;;9.00;8.10;;;11.00;99.90;;;;;;5068632;28;20502;-85
2021/09/02 01:39:22;;;;;;;9.33;8.17;;;11.10;99.90;;;;;;5052614;28;20245;-84
2021/09/02 01:41:48;;;;;;;9.47;7.90;;;11.10;99.90;;;;;;5067360;28;20213;-85
2021/09/02 01:44:14;;;;;;;9.17;8.20;;;11.10;99.90;;;;;;5062684;28;20192;-85
2021/09/02 01:46:39;;;;;;;8.83;8.03;;;11.00;99.90;;;;;;5060493;28;20219;-84
2021/09/02 01:49:05;;;;;;;9.93;8.43;;;10.80;99.90;;;;;;5083586;28;20191;-84
2021/09/02 01:51:31;;;;;;;8.40;7.60;;;10.70;99.90;;;;;;5053775;28;20202;-84
2021/09/02 01:53:57;;;;;;;9.60;8.53;;;10.60;99.90;;;;;;5053566;28;20203;-84
2021/09/02 01:56:25;;;;;;;9.20;8.30;;;10.60;99.90;;;;;;5051920;28;20233;-84
2021/09/02 01:58:54;;;;;;;9.10;8.30;;;10.60;99.90;;;;;;5033313;28;20449;-85
2021/09/02 02:01:19;;;;;;;12.80;8.73;;;10.50;99.90;;;;;;5035257;28;20507;-84
2021/09/02 02:03:45;;;;;;;10.70;9.67;;;10.30;99.90;;;;;;5037154;28;20620;-85
2021/09/02 02:06:11;;;;;;;9.87;8.90;;;10.20;99.90;;;;;;5053522;28;20594;-84
2021/09/02 02:08:37;;;;;;;10.30;9.13;;;10.20;99.90;;;;;;5052402;28;20196;-84
2021/09/02 02:11:05;;;;;;;10.10;9.20;;;10.20;99.90;;;;;;5034739;28;20559;-84
2021/09/02 02:13:30;;;;;;;10.50;9.17;;;10.20;99.90;;;;;;5042609;28;20188;-85
2021/09/02 02:15:56;;;;;;;10.80;9.27;;;10.30;99.90;;;;;;5044044;28;20451;-84
2021/09/02 02:18:22;;;;;;;8.87;7.83;;;10.40;99.90;;;;;;5052050;28;20192;-85
2021/09/02 02:20:47;;;;;;;10.37;8.50;;;10.50;99.90;;;;;;5053082;28;20279;-84
2021/09/02 02:23:13;;;;;;;10.33;8.67;;;10.40;99.90;;;;;;5052136;28;20210;-84
2021/09/02 02:25:46;;;;;;;9.47;8.30;;;10.50;99.90;;;;;;5038513;28;20300;-84
2021/09/02 02:28:12;;;;;;;9.20;8.27;;;10.50;99.90;;;;;;5034323;28;20200;-84
2021/09/02 02:30:38;;;;;;;9.20;8.40;;;10.50;99.90;;;;;;5052328;28;20878;-84
2021/09/02 02:33:04;;;;;;;8.93;8.13;;;10.40;99.90;;;;;;5060126;28;20196;-84
2021/09/02 02:35:29;;;;;;;8.97;8.10;;;10.30;99.90;;;;;;5041945;28;20695;-84
2021/09/02 02:37:55;;;;;;;9.37;8.47;;;10.20;99.90;;;;;;5032621;28;20870;-84
2021/09/02 02:40:21;;;;;;;7.97;7.17;;;10.20;99.90;;;;;;5050289;28;20217;-84
2021/09/02 02:42:47;;;;;;;9.20;8.10;;;10.30;99.90;;;;;;5055094;28;20282;-84
2021/09/02 02:45:13;;;;;;;8.43;7.30;;;10.30;99.90;;;;;;5052834;28;20438;-84
2021/09/02 02:47:39;;;;;;;8.17;7.40;;;10.20;99.90;;;;;;5041302;28;20477;-84
2021/09/02 02:50:06;;;;;;;9.13;8.13;;;10.20;99.90;;;;;;5054329;28;20192;-84
2021/09/02 02:52:31;;;;;;;8.20;7.40;;;10.30;99.90;;;;;;5055626;28;20450;-84
2021/09/02 02:54:57;;;;;;;8.63;7.77;;;10.20;99.90;;;;;;5052277;28;20893;-84
2021/09/02 02:57:25;;;;;;;7.43;6.73;;;10.20;99.90;;;;;;5039259;28;20554;-84
2021/09/02 02:59:50;;;;;;;9.20;8.30;;;10.20;99.90;;;;;;5054485;28;20228;-84
2021/09/02 03:02:16;;;;;;;7.47;6.73;;;10.20;99.90;;;;;;5049079;28;20443;-85
2021/09/02 03:04:44;;;;;;;8.60;7.60;;;10.20;99.90;;;;;;5050508;28;20183;-84
2021/09/02 03:07:10;;;;;;;7.80;7.10;;;10.30;99.90;;;;;;5035601;28;20215;-84
2021/09/02 03:09:36;;;;;;;8.30;7.50;;;10.10;99.90;;;;;;5049711;28;20870;-84
2021/09/02 03:12:01;;;;;;;7.10;6.40;;;10.20;99.90;;;;;;5032764;28;20591;-84
2021/09/02 03:14:27;;;;;;;8.83;7.73;;;10.10;99.90;;;;;;5036495;28;20547;-84
2021/09/02 03:16:53;;;;;;;7.83;7.03;;;10.10;99.90;;;;;;5044350;28;20207;-84
2021/09/02 03:19:18;;;;;;;7.10;6.40;;;10.00;99.90;;;;;;5054069;28;20187;-85
2021/09/02 03:21:44;;;;;;;8.77;7.87;;;9.80;99.90;;;;;;5048293;28;20206;-85
2021/09/02 03:24:09;;;;;;;7.67;6.90;;;9.80;99.90;;;;;;5023970;28;20202;-85
2021/09/02 03:26:35;;;;;;;7.60;6.83;;;9.70;99.90;;;;;;5030853;28;20695;-84
2021/09/02 03:29:03;;;;;;;8.00;7.20;;;9.70;99.90;;;;;;5060827;28;20187;-84
2021/09/02 03:31:28;;;;;;;8.30;7.50;;;9.50;99.90;;;;;;5033108;28;21928;-84
2021/09/02 03:33:54;;;;;;;8.33;7.53;;;9.50;99.90;;;;;;5032505;28;20196;-84
2021/09/02 03:36:20;;;;;;;8.70;7.70;;;9.50;99.90;;;;;;5042803;28;20187;-84
2021/09/02 03:38:45;;;;;;;11.07;8.33;;;9.50;99.90;;;;;;5062352;28;20196;-84
2021/09/02 03:41:11;;;;;;;8.87;8.07;;;9.60;99.90;;;;;;5062771;28;20188;-85
2021/09/02 03:43:37;;;;;;;8.63;7.83;;;9.50;99.90;;;;;;5052116;28;20192;-84
2021/09/02 03:46:02;;;;;;;9.67;8.10;;;9.50;99.90;;;;;;5040018;28;20216;-84
2021/09/02 03:48:28;;;;;;;9.60;7.57;;;9.50;99.90;;;;;;5037176;28;20223;-85
2021/09/02 03:50:54;;;;;;;9.10;8.20;;;9.40;99.90;;;;;;5049237;28;20615;-85
2021/09/02 03:53:19;;;;;;;8.53;7.10;;;9.40;99.90;;;;;;5051098;28;20438;-85
2021/09/02 03:55:45;;;;;;;9.80;8.60;;;9.40;99.90;;;;;;5054250;28;20199;-85
2021/09/02 03:58:13;;;;;;;11.43;9.13;;;9.30;99.90;;;;;;5046959;28;20435;-84
2021/09/02 04:00:38;;;;;;;9.87;8.50;;;9.20;99.90;;;;;;5050552;28;20187;-85
2021/09/02 04:03:04;;;;;;;9.80;8.90;;;9.10;99.90;;;;;;5033318;28;20452;-85
2021/09/02 04:05:30;;;;;;;10.53;9.10;;;9.10;99.90;;;;;;5054140;28;20221;-84
2021/09/02 04:07:55;;;;;;;10.40;8.80;;;9.10;99.90;;;;;;5035832;28;20257;-84
2021/09/02 04:10:21;;;;;;;11.03;9.00;;;9.10;99.90;;;;;;5040439;28;20179;-84
2021/09/02 04:12:46;;;;;;;9.90;8.90;;;9.20;99.90;;;;;;5032533;28;20249;-84
2021/09/02 04:15:12;;;;;;;8.23;7.43;;;9.30;99.90;;;;;;5050410;28;20187;-84
2021/09/02 04:17:38;;;;;;;9.07;8.17;;;9.40;99.90;;;;;;5049032;28;20211;-84
2021/09/02 04:20:07;;;;;;;10.50;7.80;;;9.40;99.90;;;;;;5037674;28;20179;-84
2021/09/02 04:22:33;;;;;;;8.00;7.20;;;9.40;99.90;;;;;;5023063;28;20569;-85
2021/09/02 04:24:59;;;;;;;8.60;7.33;;;9.50;99.90;;;;;;5026964;28;20664;-85
2021/09/02 04:27:25;;;;;;;7.67;6.97;;;9.50;99.90;;;;;;5035538;28;20486;-85
2021/09/02 04:29:51;;;;;;;9.00;8.10;;;9.40;99.90;;;;;;5034465;28;20870;-84
2021/09/02 04:32:16;;;;;;;9.23;8.33;;;9.40;99.90;;;;;;5036763;28;20196;-84
2021/09/02 04:34:42;;;;;;;8.93;8.00;;;9.50;99.90;;;;;;5030881;28;20448;-84
2021/09/02 04:37:08;;;;;;;9.17;8.27;;;9.50;99.90;;;;;;5030768;28;20211;-84
2021/09/02 04:39:34;;;;;;;8.63;7.30;;;9.50;99.90;;;;;;5045383;28;20651;-84
2021/09/02 04:41:59;;;;;;;9.40;8.50;;;9.50;99.90;;;;;;5030190;28;20188;-84
2021/09/02 04:44:25;;;;;;;10.57;8.17;;;9.50;99.90;;;;;;5031013;28;20438;-85
2021/09/02 04:46:51;;;;;;;8.03;7.07;;;9.40;99.90;;;;;;5048757;28;20236;-84
2021/09/02 04:49:16;;;;;;;9.10;8.10;;;9.40;99.90;;;;;;5047817;28;20629;-84
2021/09/02 04:51:42;;;;;;;8.73;7.80;;;9.40;99.90;;;;;;5030953;28;20195;-84
2021/09/02 04:54:08;;;;;;;9.93;7.90;;;9.30;99.90;;;;;;5047884;28;20187;-84
2021/09/02 04:56:34;;;;;;;9.83;7.83;;;9.30;99.90;;;;;;5037107;28;20194;-84
2021/09/02 04:58:59;;;;;;;8.50;7.70;;;9.30;99.90;;;;;;5038075;28;20194;-84
2021/09/02 05:01:25;;;;;;;9.80;8.10;;;9.30;99.90;;;;;;5038976;28;20200;-85
2021/09/02 05:03:53;;;;;;;9.70;8.17;;;9.20;99.90;;;;;;5054899;28;20203;-85
2021/09/02 05:06:29;;;;;;;9.70;6.70;;;9.20;99.90;;;;;;5052883;28;20752;-85
2021/09/02 05:08:57;;;;;;;9.00;8.10;;;9.20;99.90;;;;;;5065927;28;20191;-85
2021/09/02 05:11:23;;;;;;;7.70;7.00;;;9.30;99.90;;;;;;5041074;28;20446;-85
2021/09/02 05:13:48;;;;;;;8.80;7.90;;;9.30;99.90;;;;;;5058267;28;20792;-85
2021/09/02 05:16:25;;;;;;;7.53;6.83;;;9.40;99.90;;;;;;5060057;28;20195;-85
2021/09/02 05:18:55;;;;;;;8.40;7.60;;;9.40;99.90;;;;;;5041263;28;20539;-85
2021/09/02 05:21:21;;;;;;;6.97;6.37;;;9.50;99.90;;;;;;5043024;28;20448;-85
2021/09/02 05:23:47;;;;;;;8.53;7.60;;;9.60;99.90;;;;;;5059117;28;20439;-85
2021/09/02 05:26:12;;;;;;;9.97;7.67;;;9.50;99.90;;;;;;5054652;28;20253;-85
2021/09/02 05:28:38;;;;;;;7.93;7.13;;;9.50;99.90;;;;;;5066991;28;20203;-85
2021/09/02 05:31:04;;;;;;;8.90;7.77;;;9.50;99.90;;;;;;5039980;28;20442;-85
2021/09/02 05:33:29;;;;;;;11.27;7.10;;;9.60;99.90;;;;;;5061068;28;20480;-86
2021/09/02 05:35:55;;;;;;;8.40;7.50;;;9.70;99.90;;;;;;5062323;28;20191;-85
2021/09/02 05:38:21;;;;;;;9.40;7.97;;;9.70;99.90;;;;;;5043287;28;20191;-85
2021/09/02 05:40:46;;;;;;;8.00;7.20;;;9.80;99.90;;;;;;5062976;28;20361;-85
2021/09/02 05:43:12;;;;;;;9.83;8.77;;;9.80;99.90;;;;;;5081697;28;20188;-84
2021/09/02 05:45:38;;;;;;;8.60;7.63;;;9.90;99.90;;;;;;5059746;28;20200;-85
2021/09/02 05:48:04;;;;;;;10.40;7.37;;;10.00;99.90;;;;;;5064540;28;20188;-85
2021/09/02 05:50:30;;;;;;;9.00;8.10;;;10.20;99.90;;;;;;5058233;28;20191;-85
2021/09/02 05:52:56;;;;;;;8.13;7.43;;;10.40;99.90;;;;;;5057790;28;20478;-85
2021/09/02 05:55:22;;;;;;;8.87;7.97;;;10.60;99.90;;;;;;5066661;28;20491;-85
2021/09/02 05:57:50;;;;;;;8.47;7.63;;;10.70;99.90;;;;;;5061452;28;20783;-85
2021/09/02 06:00:18;;;;;;;10.00;8.50;;;10.70;99.90;;;;;;5042436;28;20208;-85
2021/09/02 06:02:43;;;;;;;9.50;8.60;;;10.80;99.90;;;;;;5066572;28;20427;-85
2021/09/02 06:05:12;;;;;;;9.87;8.90;;;10.70;99.90;;;;;;5064711;28;20483;-85
2021/09/02 06:07:39;;;;;;;14.43;9.93;;;10.80;99.90;;;;;;5029885;28;20232;-85
2021/09/02 06:10:05;;;;;;;10.27;8.40;;;10.90;99.90;;;;;;5074570;28;20465;-85
2021/09/02 06:12:31;;;;;;;10.00;9.10;;;10.90;99.90;;;;;;5063769;28;20434;-85
2021/09/02 06:14:57;;;;;;;14.10;12.70;;;11.00;99.90;;;;;;5043364;28;20437;-85
2021/09/02 06:17:23;;;;;;;14.53;13.23;;;11.10;99.90;;;;;;5049293;28;20510;-85
2021/09/02 06:19:50;;;;;;;13.83;12.00;;;11.20;99.90;;;;;;5035089;28;20638;-85
2021/09/02 06:22:19;;;;;;;13.80;11.37;;;11.40;99.90;;;;;;5046863;28;20245;-85
2021/09/02 06:24:47;;;;;;;13.60;12.23;;;11.50;99.90;;;;;;5060559;28;20445;-85
2021/09/02 06:27:15;;;;;;;13.50;12.10;;;11.60;99.90;;;;;;5065208;28;20974;-86
2021/09/02 06:29:41;;;;;;;15.00;12.10;;;11.60;99.90;;;;;;5060656;28;20442;-85
2021/09/02 06:32:08;;;;;;;16.10;12.03;;;11.60;99.90;;;;;;5043790;28;20835;-85
2021/09/02 06:34:34;;;;;;;11.93;10.70;;;11.60;99.90;;;;;;5041048;28;20571;-85
2021/09/02 06:36:59;;;;;;;12.80;11.17;;;11.80;99.90;;;;;;5058551;28;20449;-84
2021/09/02 06:39:26;;;;;;;11.33;10.23;;;12.00;99.90;;;;;;5046467;28;20188;-84
2021/09/02 06:41:52;;;;;;;13.23;10.40;;;12.10;99.90;;;;;;5043743;28;20520;-84
2021/09/02 06:44:18;;;;;;;10.57;9.47;;;12.20;99.90;;;;;;5049081;28;20600;-84
2021/09/02 06:46:44;;;;;;;11.23;10.13;;;12.30;99.90;;;;;;5064688;28;20507;-85
2021/09/02 06:49:12;;;;;;;10.63;9.63;;;12.50;99.90;;;;;;5061200;28;20286;-85
2021/09/02 06:51:42;;;;;;;10.47;9.47;;;12.70;99.90;;;;;;5063790;28;20457;-85
2021/09/02 06:54:14;;;;;;;9.80;8.80;;;12.80;99.90;;;;;;5065759;28;20537;-84
2021/09/02 06:56:43;;;;;;;11.27;9.90;;;13.00;99.90;;;;;;5060146;28;20454;-85
2021/09/02 06:59:11;;;;;;;9.37;8.47;;;13.30;99.90;;;;;;5065666;28;20563;-85
2021/09/02 07:01:39;;;;;;;12.23;9.77;;;13.20;99.90;;;;;;5064464;28;20490;-86
2021/09/02 07:04:05;;;;;;;9.67;8.67;;;13.30;99.90;;;;;;5049358;28;20449;-86
2021/09/02 07:06:30;;;;;;;12.20;10.40;;;13.30;99.90;;;;;;5068237;28;20481;-86
2021/09/02 07:09:04;;;;;;;11.27;10.17;;;13.30;99.90;;;;;;5059183;28;20330;-90
2021/09/02 07:11:32;;;;;;;9.77;8.70;;;13.40;99.90;;;;;;5067580;28;20186;-88
2021/09/02 07:13:58;;;;;;;10.33;9.30;;;13.50;99.90;;;;;;5060063;28;21021;-89
2021/09/02 07:16:24;;;;;;;10.53;9.17;;;13.60;99.90;;;;;;5060357;28;20203;-90
2021/09/02 07:18:50;;;;;;;11.10;10.00;;;13.70;99.90;;;;;;5039451;28;20456;-89
2021/09/02 07:21:15;;;;;;;11.40;10.20;;;13.80;99.90;;;;;;5058449;28;20195;-89
2021/09/02 07:23:41;;;;;;;10.53;9.27;;;13.90;99.90;;;;;;5058195;28;20282;-89
2021/09/02 07:26:07;;;;;;;11.53;10.43;;;14.00;99.90;;;;;;5062119;28;20218;-88
2021/09/02 07:28:36;;;;;;;11.33;10.23;;;14.10;99.90;;;;;;5061271;28;20201;-90
2021/09/02 07:31:13;;;;;;;10.13;8.47;;;14.10;99.90;;;;;;5047147;28;20445;-90
2021/09/02 07:33:45;;;;;;;10.67;9.67;;;14.30;99.90;;;;;;5060669;28;20596;-89
2021/09/02 07:36:11;;;;;;;10.10;9.20;;;14.30;99.90;;;;;;5064166;28;20449;-89
2021/09/02 07:38:36;;;;;;;11.40;10.20;;;14.40;99.90;;;;;;5066938;28;20804;-89
2021/09/02 07:41:02;;;;;;;9.80;8.80;;;14.50;99.90;;;;;;5065401;28;20602;-90
2021/09/02 07:43:29;;;;;;;10.30;9.33;;;14.60;99.90;;;;;;5062719;28;20238;-89
2021/09/02 07:45:55;;;;;;;9.33;8.47;;;14.70;99.90;;;;;;5061238;28;20216;-89
2021/09/02 07:48:26;;;;;;;11.97;10.50;;;14.70;99.90;;;;;;5062038;28;20911;-89
2021/09/02 07:50:54;;;;;;;10.50;9.50;;;14.90;99.90;;;;;;5060048;28;20442;-89
2021/09/02 07:53:21;;;;;;;10.40;9.30;;;14.90;99.90;;;;;;5046767;28;20453;-90
2021/09/02 07:58:27;;;;;;;11.47;10.30;;;15.10;99.90;;;;;;5049268;28;20846;-89
2021/09/02 08:00:53;;;;;;;10.03;9.13;;;15.30;99.90;;;;;;5051134;28;20482;-89
2021/09/02 08:03:19;;;;;;;11.73;9.10;;;15.30;99.90;;;;;;5040180;28;20218;-89
2021/09/02 08:05:44;;;;;;;9.17;8.30;;;15.40;99.90;;;;;;5055340;28;20751;-89
2021/09/02 08:08:33;;;;;;;10.87;9.73;;;15.50;99.90;;;;;;5058123;28;20274;-89
2021/09/02 08:11:01;;;;;;;10.33;9.23;;;15.50;99.90;;;;;;5040795;28;20277;-90
2021/09/02 08:13:38;;;;;;;11.60;10.30;;;15.70;99.90;;;;;;5055422;28;20450;-89
2021/09/02 08:16:17;;;;;;;11.17;9.67;;;15.80;99.90;;;;;;5042567;28;20459;-90
2021/09/02 08:18:59;;;;;;;10.97;9.87;;;16.00;99.90;;;;;;5041978;28;20458;-90
2021/09/02 08:21:38;;;;;;;10.97;9.80;;;16.10;99.90;;;;;;5042731;28;20544;-89
2021/09/02 08:24:07;;;;;;;10.77;9.63;;;16.20;99.90;;;;;;5058757;28;20488;-90
2021/09/02 08:26:39;;;;;;;10.43;9.40;;;16.30;99.90;;;;;;5041461;28;20485;-89
2021/09/02 08:29:05;;;;;;;12.43;9.00;;;16.40;99.90;;;;;;5059350;28;20771;-89
2021/09/02 08:31:33;;;;;;;9.97;9.00;;;16.50;99.90;;;;;;5056560;28;21005;-90
2021/09/02 08:34:05;;;;;;;9.40;8.50;;;16.70;99.90;;;;;;5060952;28;20233;-90
2021/09/02 08:36:31;;;;;;;10.33;8.90;;;16.90;99.90;;;;;;5066137;28;20541;-90
2021/09/02 08:38:56;;;;;;;10.20;9.23;;;17.10;99.90;;;;;;5072623;28;20541;-89
2021/09/02 08:41:22;;;;;;;9.50;8.50;;;17.10;99.90;;;;;;5045568;28;20179;-89
2021/09/02 08:43:48;;;;;;;10.03;9.13;;;17.10;99.90;;;;;;5061790;28;20187;-90
2021/09/02 08:46:15;;;;;;;9.40;8.50;;;17.30;99.90;;;;;;5062754;28;20218;-90
2021/09/02 08:48:49;;;;;;;9.73;8.70;;;17.50;99.90;;;;;;5057678;28;20460;-89
2021/09/02 08:51:15;;;;;;;9.97;8.97;;;17.60;99.90;;;;;;5059698;28;20942;-89
2021/09/02 08:53:44;;;;;;;9.87;8.97;;;17.70;99.90;;;;;;5057452;28;20442;-90
2021/09/02 08:56:12;;;;;;;9.90;8.90;;;17.90;99.90;;;;;;5064039;28;20507;-91
2021/09/02 08:58:37;;;;;;;10.63;9.53;;;18.10;99.90;;;;;;5060812;28;20994;-90
2021/09/02 09:01:09;;;;;;;9.93;9.03;;;18.10;99.90;;;;;;5062590;28;20446;-90
2021/09/02 09:03:50;;;;;;;10.10;9.20;;;18.20;99.90;;;;;;5051524;28;20245;-89
2021/09/02 09:06:42;;;;;;;10.20;8.50;;;18.50;99.90;;;;;;5063301;28;20985;-91
2021/09/02 09:09:11;;;;;;;9.80;8.43;;;18.60;99.90;;;;;;5035557;28;20439;-89
2021/09/02 09:11:48;;;;;;;9.50;8.33;;;19.00;99.90;;;;;;5057145;28;20529;-90
2021/09/02 09:14:28;;;;;;;9.30;8.33;;;19.20;99.90;;;;;;5057027;28;20435;-90
2021/09/02 09:16:57;;;;;;;8.20;7.40;;;19.40;99.90;;;;;;5067460;28;20447;-90
2021/09/02 09:19:35;;;;;;;8.70;7.90;;;19.60;99.90;;;;;;5062400;28;20512;-90
2021/09/02 09:22:01;;;;;;;9.33;8.53;;;19.70;99.90;;;;;;5067154;28;20505;-91
2021/09/02 09:24:46;;;;;;;10.60;8.93;;;19.60;99.90;;;;;;5046592;28;20535;-89
2021/09/02 09:27:14;;;;;;;9.03;8.13;;;19.50;99.90;;;;;;5064337;28;20252;-90
2021/09/02 09:29:42;;;;;;;8.50;7.70;;;19.80;99.90;;;;;;5062773;28;20456;-91
2021/09/02 09:32:18;;;;;;;11.23;7.83;;;20.10;99.90;;;;;;5051261;28;20461;-91
2021/09/02 09:34:51;;;;;;;9.30;7.23;;;20.20;99.90;;;;;;5062143;28;20441;-90
2021/09/02 09:37:25;;;;;;;8.93;8.03;;;20.10;99.90;;;;;;5066745;28;20484;-91
2021/09/02 09:40:11;;;;;;;8.63;7.93;;;20.20;99.90;;;;;;5069264;28;20516;-91
2021/09/02 09:42:40;;;;;;;7.83;7.13;;;20.00;99.90;;;;;;5036700;28;20484;-90
2021/09/02 09:45:30;;;;;;;7.83;7.13;;;20.10;99.90;;;;;;5059436;28;20454;-90
2021/09/02 09:47:59;;;;;;;9.03;7.00;;;20.40;99.90;;;;;;5067089;28;20495;-92
2021/09/02 09:50:26;;;;;;;8.00;7.00;;;20.70;99.90;;;;;;5081060;28;20441;-89
2021/09/02 09:55:31;;;;;;;8.30;7.50;;;21.00;99.90;;;;;;5050203;28;20187;-90
2021/09/02 09:57:56;;;;;;;7.80;7.17;;;21.20;99.90;;;;;;5075386;28;21476;-90
2021/09/02 10:00:25;;;;;;;8.43;7.63;;;21.30;99.90;;;;;;5051103;28;20429;-90
2021/09/02 10:02:51;;;;;;;8.97;8.07;;;21.30;99.90;;;;;;5062310;28;20193;-90
2021/09/02 10:05:22;;;;;;;8.23;7.53;;;21.30;99.90;;;;;;5066087;28;20530;-89
2021/09/02 10:10:40;;;;;;;7.10;6.40;;;21.50;99.90;;;;;;5047225;28;20445;-91
2021/09/02 10:13:06;;;;;;;7.33;6.63;;;21.90;99.90;;;;;;5039653;28;20453;-90
2021/09/02 10:15:33;;;;;;;7.87;7.17;;;22.20;99.90;;;;;;5050208;28;20454;-88
2021/09/02 10:17:59;;;;;;;8.37;6.13;;;22.10;99.40;;;;;;5059085;28;20430;-88
2021/09/02 10:20:33;;;;;;;6.73;6.13;;;22.00;99.20;;;;;;5047059;28;20569;-88
2021/09/02 10:23:02;;;;;;;6.30;5.70;;;22.10;98.70;;;;;;5054807;28;20544;-88
2021/09/02 10:25:33;;;;;;;6.07;5.50;;;22.30;98.60;;;;;;5056318;28;20880;-89
2021/09/02 10:28:12;;;;;;;6.20;5.27;;;22.40;96.70;;;;;;5040161;28;20482;-88
2021/09/02 10:30:45;;;;;;;5.63;5.13;;;22.10;95.50;;;;;;5040475;28;20450;-89
2021/09/02 10:33:46;;;;;;;5.60;5.10;;;22.00;95.90;;;;;;5069742;28;20438;-89
2021/09/02 10:36:11;;;;;;;7.50;5.27;;;22.20;96.20;;;;;;5055055;28;21016;-88
2021/09/02 10:39:03;;;;;;;5.50;5.00;;;22.20;95.20;;;;;;5041863;28;20893;-88
2021/09/02 10:41:39;;;;;;;5.33;4.63;;;22.00;94.60;;;;;;5063494;28;20293;-88
2021/09/02 10:44:07;;;;;;;5.43;4.93;;;22.30;94.80;;;;;;5058312;28;20706;-88
2021/09/02 10:46:37;;;;;;;5.20;4.70;;;22.60;94.50;;;;;;5052422;28;20484;-88
2021/09/02 10:49:25;;;;;;;5.00;4.60;;;22.60;94.70;;;;;;5065951;28;20453;-88
2021/09/02 10:51:58;;;;;;;5.03;4.53;;;22.50;93.50;;;;;;5042918;28;20523;-88
2021/09/02 10:54:35;;;;;;;5.37;4.87;;;22.80;93.20;;;;;;5057986;28;20489;-88
2021/09/02 10:57:12;;;;;;;5.20;4.80;;;22.90;94.30;;;;;;5042737;28;20542;-90
2021/09/02 10:59:45;;;;;;;4.63;4.23;;;22.80;93.40;;;;;;5054693;28;20457;-89
2021/09/02 11:02:17;;;;;;;5.40;4.93;;;23.20;94.10;;;;;;5052793;28;20457;-89
2021/09/02 11:04:46;;;;;;;4.30;4.00;;;23.10;92.10;;;;;;5037024;28;20588;-89
2021/09/02 11:07:14;;;;;;;5.10;4.37;;;23.00;91.30;;;;;;5070915;28;20475;-87
2021/09/02 11:09:45;;;;;;;5.57;5.07;;;23.10;93.30;;;;;;5052301;28;20967;-89
2021/09/02 11:12:16;;;;;;;4.80;4.40;;;23.20;92.00;;;;;;5062512;28;20199;-89
2021/09/02 11:14:46;;;;;;;5.07;4.33;;;23.20;91.10;;;;;;5068412;28;20435;-89
2021/09/02 11:17:15;;;;;;;5.47;4.50;;;23.20;93.20;;;;;;5056360;28;20515;-89
2021/09/02 11:19:42;;;;;;;6.53;4.70;;;23.30;93.40;;;;;;5062448;28;20438;-89
2021/09/02 11:22:17;;;;;;;4.30;3.97;;;23.60;92.10;;;;;;5040068;28;20540;-89
2021/09/02 11:24:48;;;;;;;5.20;4.80;;;23.60;93.80;;;;;;5041704;28;20530;-88
2021/09/02 11:27:29;;;;;;;4.90;4.40;;;23.80;92.70;;;;;;5042319;28;20485;-88
2021/09/02 11:30:12;;;;;;;5.10;4.70;;;23.70;91.50;;;;;;5038421;28;21441;-87
2021/09/02 11:32:38;;;;;;;4.70;4.30;;;23.70;91.90;;;;;;5036268;28;20449;-88
2021/09/02 11:35:04;;;;;;;5.20;4.80;;;23.60;92.70;;;;;;5045072;28;20454;-88
2021/09/02 11:37:43;;;;;;;5.30;4.63;;;23.70;91.80;;;;;;5052264;28;20242;-88
2021/09/02 11:40:20;;;;;;;4.77;4.37;;;23.70;91.40;;;;;;5034285;28;20792;-88
2021/09/02 11:42:46;;;;;;;4.67;4.27;;;23.90;91.20;;;;;;5041309;28;20456;-89
2021/09/02 11:45:16;;;;;;;5.60;4.50;;;24.00;90.00;;;;;;5051709;28;20453;-88
2021/09/02 11:47:41;;;;;;;6.00;4.07;;;24.20;91.10;;;;;;5041877;28;20831;-88
2021/09/02 11:50:08;;;;;;;5.00;4.60;;;24.30;93.00;;;;;;5059058;28;20816;-88
2021/09/02 11:52:41;;;;;;;6.93;5.17;;;24.30;92.00;;;;;;5060634;28;21477;-88
2021/09/02 11:55:12;;;;;;;5.00;4.60;;;24.20;90.70;;;;;;5049312;28;20482;-88
2021/09/02 11:57:46;;;;;;;4.93;4.37;;;24.20;91.70;;;;;;5035708;28;20449;-88
2021/09/02 12:00:25;;;;;;;4.50;4.10;;;24.30;90.20;;;;;;5049346;28;21266;-88
2021/09/02 12:02:56;;;;;;;5.10;4.67;;;24.20;90.40;;;;;;5036140;28;20452;-88
2021/09/02 12:05:39;;;;;;;5.03;4.60;;;24.00;91.00;;;;;;5073666;28;20454;-89
2021/09/02 12:08:12;;;;;;;5.10;4.60;;;24.30;92.20;;;;;;5054817;28;20534;-89
2021/09/02 12:10:43;;;;;;;4.47;4.07;;;24.60;91.80;;;;;;5037467;28;20462;-88
2021/09/02 12:13:27;;;;;;;4.60;4.20;;;24.60;90.90;;;;;;5039984;28;20433;-87
2021/09/02 12:16:11;;;;;;;4.97;4.57;;;24.90;90.90;;;;;;5056575;28;20512;-88
2021/09/02 12:18:41;;;;;;;4.90;4.50;;;24.70;90.90;;;;;;5038652;28;20453;-87
2021/09/02 12:21:15;;;;;;;4.13;3.83;;;24.60;89.00;;;;;;5037239;28;20461;-88
2021/09/02 12:23:53;;;;;;;4.60;4.20;;;24.30;90.00;;;;;;5036757;28;20439;-89
2021/09/02 12:26:24;;;;;;;4.77;4.37;;;24.30;90.60;;;;;;5038596;28;20473;-88
2021/09/02 12:28:55;;;;;;;4.73;4.33;;;24.30;87.00;;;;;;5039229;28;20508;-89
2021/09/02 12:31:27;;;;;;;4.80;4.40;;;24.20;87.80;;;;;;5057839;28;20437;-89
2021/09/02 12:34:02;;;;;;;4.67;4.27;;;24.30;87.60;;;;;;5039532;28;20566;-87
2021/09/02 12:36:30;;;;;;;5.07;4.60;;;24.40;87.70;;;;;;5038678;28;20442;-88
2021/09/02 12:39:23;;;;;;;4.60;4.20;;;24.40;91.70;;;;;;5052117;28;20520;-89
2021/09/02 12:41:58;;;;;;;4.60;4.20;;;24.50;89.90;;;;;;5033903;28;20453;-89
2021/09/02 12:44:25;;;;;;;4.73;4.33;;;24.40;83.10;;;;;;5056617;28;20440;-88
2021/09/02 12:46:54;;;;;;;5.20;4.77;;;24.50;90.60;;;;;;5059884;28;21054;-88
2021/09/02 12:49:21;;;;;;;4.50;4.20;;;24.60;87.50;;;;;;5047720;28;20434;-89
2021/09/02 12:52:01;;;;;;;5.10;4.60;;;24.70;89.30;;;;;;5056799;28;20453;-88
2021/09/02 12:54:30;;;;;;;5.13;4.63;;;25.20;86.90;;;;;;5041916;28;20446;-88
2021/09/02 12:56:56;;;;;;;4.77;4.37;;;25.30;84.30;;;;;;5051062;28;20449;-88
2021/09/02 12:59:22;;;;;;;4.67;4.27;;;25.40;85.40;;;;;;5051519;28;20792;-90
2021/09/02 13:01:48;;;;;;;4.90;4.50;;;25.10;82.30;;;;;;5063678;28;20222;-88